Johannesburg, MI

4:20 PM EST on March 05, 2015 (GMT -0500)
Lake Louise | Change Station
CLOSE
Current Station
Personal Weather Station
Location: Johannesburg, MI
Elevation: 1358 ft
Nearby Weather Stations

Elev 1358 ft 44.98 °N, 84.49 °W | Updated 3 minutes ago

Clear
Clear
17.4 °F
Feels Like 12 °F
N
3.7
Wind Variable Wind from SSW

Today
High -- | Low -- °F
--% Chance of Precip.
Yesterday
High -- | Low -- °F
Precip. -- in
7:08 AM 6:30 PM
Full, 100% visible
Pressure 30.42 in
Visibility 10.0 miles
Clouds Clear
Windchill 12 °F
Dew Point 1 °F
Humidity 47%
Rainfall in
Snow Depth Not available.
UV 2 out of 12
Pollen .40 out of 12
Air Quality Not available.
Flu Activity Not available.
METAR KGLR 052053Z AUTO 28008KT 10SM CLR M12/M21 A3031 RMK AO2 SLP300 60000 T11221206 55004

More Conditions Fewer Conditions

Pressure 30.42 in
Visibility 10.0 miles
Clouds Clear
Windchill 12 °F
Dew Point 1 °F
Humidity 47%
Rainfall in
Snow Depth Not available.
UV 2 out of 12
Pollen .40 out of 12
Air Quality Not available.
Flu Activity Not available.
METAR KGLR 052053Z AUTO 28008KT 10SM CLR M12/M21 A3031 RMK AO2 SLP300 60000 T11221206 55004

More Conditions Fewer Conditions

Nowcast | as of 4:00 PM EST on March 5, 2015

At 5 PM...mostly clear. Temperature 8 above. West winds 7 mph. At 7 PM...mostly clear. Temperature 5 above. West winds 6 mph. At 9 PM...mostly clear. Temperature 1 above. Southwest winds 6 mph. At 11 PM...mostly clear. Temperature 5 below. Southwest winds 6 mph.

×

10-Day Weather Forecast

Almanac

Astronomy

Mar. 05, 2015 Rise Set
Actual Time
Civil Twilight
Nautical Twilight
Astronomical Twilight
Moon
Length of Visible Light
Length of Day
Tomorrow will be .
, % of the Moon is Illuminated

Today's Extremes

State Highs State Lows

Community

WunderPhotos

Upload Photos

1,802,996 photos uploaded!

WunderBlogs® & News

Nearby

Air Quality

  Air Quality AQ Index Pollutant
Not available.

Snow Depth

Station Depth Elevation

Earthquake Activity

City Distance Mag. Time & Date
Minimum magnitude displayed is 2.5.

Coastal Water Temperatures

Place Temperature

Nearby Weather Stations